createdAt,value
2023-02-12T00:01:21.791Z,0.20
2023-02-12T00:03:48.924Z,0.23
2023-02-12T00:06:36.298Z,0.13
2023-02-12T00:09:23.407Z,0.17
2023-02-12T00:12:10.333Z,0.20
2023-02-12T00:14:58.098Z,0.20
2023-02-12T00:17:44.990Z,0.30
2023-02-12T00:20:32.112Z,0.13
2023-02-12T00:23:19.018Z,0.40
2023-02-12T00:26:06.014Z,0.30
2023-02-12T00:28:53.051Z,0.40
2023-02-12T00:31:43.253Z,0.30
2023-02-12T00:34:31.410Z,0.23
2023-02-12T00:37:18.614Z,0.27
2023-02-12T00:40:06.148Z,0.30
2023-02-12T00:42:53.214Z,0.30
2023-02-12T00:45:40.181Z,0.20
2023-02-12T00:48:27.771Z,0.30
2023-02-12T00:51:14.811Z,0.30
2023-02-12T00:54:01.786Z,0.30
2023-02-12T00:56:48.926Z,0.40
2023-02-12T00:59:36.365Z,0.30
2023-02-12T01:02:23.645Z,0.40
2023-02-12T01:05:10.770Z,0.40
2023-02-12T01:07:57.831Z,0.67
2023-02-12T01:10:45.260Z,0.53
2023-02-12T01:13:33.720Z,0.20
2023-02-12T01:16:42.173Z,0.23
2023-02-12T01:19:31.704Z,0.20
2023-02-12T01:22:18.717Z,0.50
2023-02-12T01:25:05.680Z,0.40
2023-02-12T01:27:53.352Z,0.47
2023-02-12T01:30:40.537Z,0.37
2023-02-12T01:33:27.530Z,0.60
2023-02-12T01:36:14.962Z,0.53
2023-02-12T01:39:01.937Z,0.50
2023-02-12T01:41:52.037Z,0.50
2023-02-12T01:44:42.093Z,0.30
2023-02-12T01:47:37.791Z,0.40
2023-02-12T01:50:27.981Z,0.40
2023-02-12T01:53:17.989Z,0.20
2023-02-12T01:56:05.434Z,0.47
2023-02-12T01:58:57.803Z,0.23
2023-02-12T02:01:48.849Z,0.30
2023-02-12T02:04:39.726Z,0.30
2023-02-12T02:07:28.312Z,0.40
2023-02-12T02:10:18.737Z,0.30
2023-02-12T02:13:05.572Z,0.10
2023-02-12T02:15:53.452Z,0.20
2023-02-12T02:18:51.921Z,0.30
2023-02-12T02:22:11.503Z,0.20
2023-02-12T02:25:10.749Z,0.20
2023-02-12T02:28:21.692Z,0.23
2023-02-12T02:31:17.505Z,0.40
2023-02-12T02:34:14.202Z,0.33
2023-02-12T02:37:19.542Z,0.33
2023-02-12T02:40:15.995Z,0.60
2023-02-12T02:42:55.150Z,0.23
2023-02-12T02:45:40.293Z,0.20
2023-02-12T02:48:14.023Z,0.10
2023-02-12T02:50:44.919Z,0.10
2023-02-12T02:53:17.686Z,0.30
2023-02-12T02:55:51.756Z,0.20
2023-02-12T02:58:28.054Z,0.13
2023-02-12T03:01:30.924Z,0.20
2023-02-12T03:04:26.763Z,0.20
2023-02-12T03:07:26.893Z,0.13
2023-02-12T03:10:24.734Z,0.60
2023-02-12T03:13:17.381Z,0.20
2023-02-12T03:16:09.978Z,0.20
2023-02-12T03:19:04.074Z,0.10
2023-02-12T03:22:17.278Z,0.20
2023-02-12T03:25:23.188Z,0.20
2023-02-12T03:28:19.989Z,0.20
2023-02-12T03:31:21.910Z,0.30
2023-02-12T03:34:18.285Z,0.20
2023-02-12T03:37:21.446Z,0.20
2023-02-12T03:40:14.933Z,0.20
2023-02-12T03:43:01.733Z,0.10
2023-02-12T03:46:00.650Z,0.20
2023-02-12T03:48:51.223Z,0.10
2023-02-12T03:51:49.317Z,0.23
2023-02-12T03:54:40.059Z,0.10
2023-02-12T03:57:35.796Z,0.10
2023-02-12T04:00:27.254Z,0.17
2023-02-12T04:03:15.217Z,0.10
2023-02-12T04:06:02.103Z,0.20
2023-02-12T04:08:51.097Z,0.10
2023-02-12T04:11:41.078Z,0.20
2023-02-12T04:14:44.947Z,0.20
2023-02-12T04:18:03.033Z,0.20
2023-02-12T04:21:14.118Z,0.30
2023-02-12T04:24:14.793Z,0.30
2023-02-12T04:27:40.634Z,0.17
2023-02-12T04:30:39.275Z,0.20
2023-02-12T04:33:30.848Z,0.20
2023-02-12T04:36:24.658Z,0.10
2023-02-12T04:39:17.561Z,0.10
2023-02-12T04:42:04.557Z,0.27
2023-02-12T04:44:54.054Z,0.20
2023-02-12T04:47:41.157Z,0.23
2023-02-12T04:50:29.159Z,0.20
2023-02-12T04:53:16.111Z,0.20
2023-02-12T04:56:03.298Z,0.20
2023-02-12T04:58:50.278Z,0.43
2023-02-12T05:01:37.353Z,0.30
2023-02-12T05:04:25.477Z,0.23
2023-02-12T05:07:12.363Z,0.40
2023-02-12T05:09:59.326Z,0.40
2023-02-12T05:12:46.218Z,0.20
2023-02-12T05:15:33.316Z,0.20
2023-02-12T05:18:20.459Z,0.30
2023-02-12T05:21:16.267Z,0.10
2023-02-12T05:24:03.571Z,0.20
2023-02-12T05:26:50.501Z,0.10
2023-02-12T05:29:38.132Z,0.30
2023-02-12T05:32:25.442Z,0.20
2023-02-12T05:35:12.482Z,0.40
2023-02-12T05:37:39.763Z,0.30
2023-02-12T05:40:08.882Z,0.37
2023-02-12T05:42:55.852Z,0.20
2023-02-12T05:45:42.815Z,0.23
2023-02-12T05:48:29.725Z,0.60
2023-02-12T05:51:23.363Z,0.27
2023-02-12T05:54:12.649Z,0.40
2023-02-12T05:57:05.381Z,0.47
2023-02-12T05:59:52.346Z,0.30
2023-02-12T06:02:39.594Z,0.80
2023-02-12T06:05:26.896Z,1.07
2023-02-12T06:08:13.779Z,0.60
2023-02-12T06:11:00.716Z,0.57
2023-02-12T06:13:47.667Z,0.53
2023-02-12T06:16:41.949Z,0.50
2023-02-12T06:19:29.859Z,0.70
2023-02-12T06:22:16.882Z,0.60
2023-02-12T06:25:03.919Z,0.43
2023-02-12T06:27:51.039Z,0.40
2023-02-12T06:30:38.137Z,0.40
2023-02-12T06:33:25.151Z,0.60
2023-02-12T06:36:12.367Z,0.57
2023-02-12T06:38:59.429Z,0.60
2023-02-12T06:41:46.646Z,0.53
2023-02-12T06:44:33.726Z,0.80
2023-02-12T06:47:20.738Z,0.60
2023-02-12T06:50:07.578Z,0.50
2023-02-12T06:52:54.622Z,0.33
2023-02-12T06:55:41.818Z,0.60
2023-02-12T06:58:29.084Z,0.60
2023-02-12T07:01:15.963Z,0.40
2023-02-12T07:04:03.685Z,0.50
2023-02-12T07:06:53.449Z,0.50
2023-02-12T07:09:40.358Z,0.33
2023-02-12T07:12:27.743Z,0.43
2023-02-12T07:15:14.688Z,0.50
2023-02-12T07:18:01.670Z,0.60
2023-02-12T07:20:48.697Z,0.50
2023-02-12T07:23:35.638Z,0.33
2023-02-12T07:26:28.104Z,0.63
2023-02-12T07:29:16.663Z,0.53
2023-02-12T07:32:04.002Z,0.20
2023-02-12T07:34:51.149Z,0.40
2023-02-12T07:37:38.006Z,0.30
2023-02-12T07:40:26.078Z,0.40
2023-02-12T07:43:15.909Z,0.40
2023-02-12T07:46:02.829Z,0.47
2023-02-12T07:48:49.922Z,0.40
2023-02-12T07:51:41.185Z,0.53
2023-02-12T07:54:28.360Z,0.40
2023-02-12T07:57:15.183Z,0.30
2023-02-12T08:00:02.336Z,0.37
2023-02-12T08:02:58.867Z,0.30
2023-02-12T08:05:46.084Z,0.43
2023-02-12T08:08:33.139Z,0.27
2023-02-12T08:11:20.022Z,0.50
2023-02-12T08:14:07.276Z,0.70
2023-02-12T08:16:59.174Z,0.70
2023-02-12T08:19:46.056Z,0.57
2023-02-12T08:22:33.307Z,0.27
2023-02-12T08:25:20.151Z,0.33
2023-02-12T08:28:07.134Z,0.37
2023-02-12T08:30:54.128Z,0.50
2023-02-12T08:33:41.130Z,0.37
2023-02-12T08:36:34.192Z,0.47
2023-02-12T08:39:21.190Z,0.30
2023-02-12T08:42:08.689Z,0.73
2023-02-12T08:44:55.554Z,0.60
2023-02-12T08:47:42.465Z,0.53
2023-02-12T08:50:29.825Z,0.47
2023-02-12T08:53:16.722Z,0.40
2023-02-12T08:56:09.248Z,0.23
2023-02-12T08:58:57.110Z,0.47
2023-02-12T09:01:46.153Z,0.60
2023-02-12T09:04:42.469Z,0.97
2023-02-12T09:07:29.535Z,0.30
2023-02-12T09:10:16.454Z,0.37
2023-02-12T09:13:03.333Z,0.57
2023-02-12T09:15:50.196Z,0.40
2023-02-12T09:18:37.509Z,0.57
2023-02-12T09:21:27.368Z,0.53
2023-02-12T09:24:14.856Z,0.30
2023-02-12T09:27:01.798Z,0.30
2023-02-12T09:29:48.768Z,0.50
2023-02-12T09:32:35.661Z,0.30
2023-02-12T09:35:22.582Z,0.40
2023-02-12T09:38:09.681Z,0.27
2023-02-12T09:40:59.461Z,0.40
2023-02-12T09:44:04.188Z,0.53
2023-02-12T09:46:51.137Z,0.17
2023-02-12T09:49:38.052Z,0.40
2023-02-12T09:52:28.322Z,0.50
2023-02-12T09:55:16.165Z,0.43
2023-02-12T09:58:04.349Z,0.20
2023-02-12T10:00:52.293Z,0.33
2023-02-12T10:03:39.410Z,0.43
2023-02-12T10:06:33.817Z,0.70
2023-02-12T10:09:45.230Z,0.30
2023-02-12T10:12:49.861Z,0.30
2023-02-12T10:15:56.017Z,0.50
2023-02-12T10:19:13.554Z,0.37
2023-02-12T10:22:06.711Z,0.30
2023-02-12T10:25:08.977Z,0.30
2023-02-12T10:28:17.038Z,0.40
2023-02-12T10:31:47.962Z,0.27
2023-02-12T10:34:52.471Z,0.23
2023-02-12T10:38:04.017Z,0.30
2023-02-12T10:40:53.875Z,0.23
2023-02-12T10:43:40.883Z,0.40
2023-02-12T10:46:34.569Z,0.30
2023-02-12T10:49:22.349Z,0.47
2023-02-12T10:52:21.227Z,0.20
2023-02-12T10:55:48.203Z,0.40
2023-02-12T10:58:42.445Z,0.50
2023-02-12T11:01:55.466Z,0.43
2023-02-12T11:04:47.530Z,0.50
2023-02-12T11:07:34.635Z,0.40
2023-02-12T11:10:21.657Z,0.80
2023-02-12T11:13:09.023Z,0.67
2023-02-12T11:16:08.106Z,0.50
2023-02-12T11:18:55.690Z,0.40
2023-02-12T11:21:43.445Z,0.57
2023-02-12T11:24:48.868Z,0.63
2023-02-12T11:27:36.002Z,0.40
2023-02-12T11:30:40.097Z,0.57
2023-02-12T11:33:45.179Z,0.37
2023-02-12T11:36:45.788Z,0.30
2023-02-12T11:39:56.473Z,0.30
2023-02-12T11:42:46.518Z,0.30
2023-02-12T11:45:42.620Z,0.30
2023-02-12T11:48:58.100Z,0.30
2023-02-12T11:51:47.671Z,0.30
2023-02-12T11:54:41.907Z,0.20
2023-02-12T11:58:03.896Z,0.40
2023-02-12T12:01:06.035Z,0.20
2023-02-12T12:03:58.779Z,0.20
2023-02-12T12:07:06.006Z,0.30
2023-02-12T12:10:09.701Z,0.20
2023-02-12T12:12:56.473Z,0.10
2023-02-12T12:15:44.320Z,0.40
2023-02-12T12:18:39.306Z,0.13
2023-02-12T12:22:00.174Z,0.37
2023-02-12T12:24:53.077Z,0.60
2023-02-12T12:27:46.163Z,0.40
2023-02-12T12:30:43.108Z,0.40
2023-02-12T12:33:40.266Z,0.40
2023-02-12T12:36:32.976Z,0.20
2023-02-12T12:39:26.879Z,0.30
2023-02-12T12:42:32.396Z,0.20
2023-02-12T12:45:32.186Z,0.50
2023-02-12T12:48:31.183Z,0.30
2023-02-12T12:50:58.103Z,0.45
2023-02-12T12:54:00.638Z,0.30
2023-02-12T12:56:53.655Z,0.30
2023-02-12T12:59:52.428Z,0.20
2023-02-12T13:02:45.236Z,0.40
2023-02-12T13:05:59.313Z,0.27
2023-02-12T13:09:32.789Z,0.40
2023-02-12T13:12:49.722Z,0.30
2023-02-12T13:15:40.299Z,0.30
2023-02-12T13:18:42.589Z,0.30
2023-02-12T13:21:35.203Z,0.40
2023-02-12T13:24:38.381Z,0.23
2023-02-12T13:27:37.313Z,0.30
2023-02-12T13:30:38.126Z,0.20
2023-02-12T13:33:28.459Z,0.47
2023-02-12T13:36:20.246Z,0.27
2023-02-12T13:39:29.357Z,0.20
2023-02-12T13:42:33.731Z,0.20
2023-02-12T13:45:59.131Z,0.30
2023-02-12T13:48:54.731Z,0.30
2023-02-12T13:51:59.310Z,0.20
2023-02-12T13:55:20.302Z,0.30
2023-02-12T13:58:07.254Z,0.30
2023-02-12T14:01:12.449Z,0.30
2023-02-12T14:03:59.766Z,0.10
2023-02-12T14:06:46.731Z,0.10
2023-02-12T14:09:41.842Z,0.10
2023-02-12T14:12:45.265Z,0.17
2023-02-12T14:15:44.115Z,0.23
2023-02-12T14:18:56.943Z,0.20
2023-02-12T14:21:50.208Z,0.20
2023-02-12T14:24:56.082Z,0.20
2023-02-12T14:28:04.425Z,0.30
2023-02-12T14:30:56.958Z,0.00
2023-02-12T14:33:46.972Z,0.03
2023-02-12T14:36:53.526Z,0.00
2023-02-12T14:39:40.472Z,0.00
2023-02-12T14:42:30.285Z,0.00
2023-02-12T14:45:17.864Z,0.07
2023-02-12T14:48:07.766Z,0.07
2023-02-12T14:51:02.448Z,0.10
2023-02-12T14:53:55.692Z,0.20
2023-02-12T14:56:43.995Z,0.30
2023-02-12T14:59:38.547Z,0.10
2023-02-12T15:02:27.898Z,0.50
2023-02-12T15:05:19.613Z,0.20
2023-02-12T15:07:59.879Z,0.20
2023-02-12T15:10:55.791Z,0.50
2023-02-12T15:13:42.637Z,0.10
2023-02-12T15:16:49.902Z,0.30
2023-02-12T15:19:52.061Z,0.67
2023-02-12T15:22:44.940Z,0.50
2023-02-12T15:25:45.787Z,0.53
2023-02-12T15:28:47.782Z,0.63
2023-02-12T15:31:41.762Z,0.53
2023-02-12T15:34:41.940Z,0.53
2023-02-12T15:37:35.659Z,0.57
2023-02-12T15:40:23.469Z,0.67
2023-02-12T15:43:19.313Z,1.10
2023-02-12T15:46:13.323Z,1.00
2023-02-12T15:49:00.592Z,1.13
2023-02-12T15:51:59.169Z,0.50
2023-02-12T15:54:47.401Z,0.80
2023-02-12T15:57:41.703Z,0.83
2023-02-12T16:00:59.869Z,0.70
2023-02-12T16:03:49.920Z,1.03
2023-02-12T16:06:38.328Z,0.70
2023-02-12T16:09:39.858Z,0.90
2023-02-12T16:12:34.199Z,0.50
2023-02-12T16:15:21.659Z,0.53
2023-02-12T16:18:08.523Z,0.70
2023-02-12T16:20:55.620Z,0.60
2023-02-12T16:23:42.600Z,0.73
2023-02-12T16:26:35.721Z,0.47
2023-02-12T16:29:23.453Z,0.47
2023-02-12T16:32:17.232Z,0.90
2023-02-12T16:35:04.142Z,0.90
2023-02-12T16:37:56.950Z,0.53
2023-02-12T16:40:46.070Z,0.50
2023-02-12T16:43:44.491Z,0.60
2023-02-12T16:46:33.051Z,0.67
2023-02-12T16:49:22.306Z,0.60
2023-02-12T16:52:12.941Z,0.87
2023-02-12T16:54:59.939Z,0.60
2023-02-12T16:57:46.772Z,0.70
2023-02-12T17:00:37.007Z,0.63
2023-02-12T17:03:23.990Z,0.50
2023-02-12T17:06:10.899Z,0.67
2023-02-12T17:08:57.744Z,0.70
2023-02-12T17:11:46.533Z,0.70
2023-02-12T17:14:39.178Z,0.67
2023-02-12T17:17:26.501Z,0.83
2023-02-12T17:20:13.438Z,0.67
2023-02-12T17:23:05.453Z,0.90
2023-02-12T17:25:52.373Z,0.70
2023-02-12T17:28:39.597Z,0.77
2023-02-12T17:31:26.510Z,0.77
2023-02-12T17:34:13.571Z,0.70
2023-02-12T17:37:00.490Z,0.70
2023-02-12T17:39:47.661Z,0.70
2023-02-12T17:42:34.732Z,0.97
2023-02-12T17:45:21.958Z,1.23
2023-02-12T17:48:08.825Z,0.83
2023-02-12T17:50:56.195Z,1.03
2023-02-12T17:53:43.380Z,0.90
2023-02-12T17:56:34.726Z,1.17
2023-02-12T17:59:21.603Z,1.40
2023-02-12T18:02:08.608Z,0.87
2023-02-12T18:04:58.342Z,0.60
2023-02-12T18:07:45.482Z,0.80
2023-02-12T18:10:33.346Z,0.90
2023-02-12T18:13:20.285Z,0.90
2023-02-12T18:16:07.326Z,0.93
2023-02-12T18:18:54.936Z,0.60
2023-02-12T18:21:41.864Z,0.93
2023-02-12T18:24:28.738Z,0.60
2023-02-12T18:27:15.545Z,1.37
2023-02-12T18:30:02.686Z,0.50
2023-02-12T18:32:49.588Z,0.60
2023-02-12T18:35:36.582Z,0.60
2023-02-12T18:38:23.739Z,0.80
2023-02-12T18:41:10.601Z,0.80
2023-02-12T18:43:57.986Z,0.83
2023-02-12T18:46:48.169Z,1.00
2023-02-12T18:49:35.070Z,0.80
2023-02-12T18:52:22.253Z,0.90
2023-02-12T18:55:09.191Z,0.90
2023-02-12T18:57:56.273Z,0.93
2023-02-12T19:00:44.470Z,0.77
2023-02-12T19:03:31.585Z,1.23
2023-02-12T19:06:24.169Z,0.70
2023-02-12T19:09:18.424Z,1.20
2023-02-12T19:12:07.138Z,0.83
2023-02-12T19:14:54.762Z,1.03
2023-02-12T19:17:41.655Z,1.10
2023-02-12T19:20:29.058Z,1.00
2023-02-12T19:23:15.895Z,1.03
2023-02-12T19:26:02.876Z,1.13
2023-02-12T19:28:49.713Z,0.90
2023-02-12T19:31:49.399Z,0.97
2023-02-12T19:34:39.296Z,1.10
2023-02-12T19:37:26.438Z,1.37
2023-02-12T19:40:13.314Z,1.20
2023-02-12T19:43:00.425Z,0.77
2023-02-12T19:45:47.361Z,1.17
2023-02-12T19:48:34.460Z,1.10
2023-02-12T19:51:21.591Z,1.40
2023-02-12T19:54:09.121Z,0.93
2023-02-12T19:56:56.413Z,1.03
2023-02-12T19:59:45.072Z,1.43
2023-02-12T20:02:32.738Z,1.20
2023-02-12T20:05:19.778Z,1.20
2023-02-12T20:08:06.614Z,1.50
2023-02-12T20:10:53.762Z,1.23
2023-02-12T20:13:40.831Z,1.27
2023-02-12T20:16:31.846Z,1.00
2023-02-12T20:19:22.243Z,1.40
2023-02-12T20:22:10.823Z,1.20
2023-02-12T20:24:57.691Z,1.60
2023-02-12T20:27:44.578Z,1.13
2023-02-12T20:30:31.842Z,1.10
2023-02-12T20:33:18.778Z,1.27
2023-02-12T20:36:05.741Z,1.50
2023-02-12T20:38:52.689Z,1.17
2023-02-12T20:41:39.937Z,1.40
2023-02-12T20:44:29.610Z,1.13
2023-02-12T20:47:16.557Z,1.23
2023-02-12T20:50:03.932Z,1.50
2023-02-12T20:52:50.862Z,1.10
2023-02-12T20:55:18.039Z,1.40
2023-02-12T20:57:45.065Z,1.60
2023-02-12T21:00:12.790Z,1.53
2023-02-12T21:02:39.922Z,1.70
2023-02-12T21:05:07.693Z,1.33
2023-02-12T21:07:35.355Z,1.93
2023-02-12T21:10:02.435Z,1.30
2023-02-12T21:12:29.522Z,1.87
2023-02-12T21:14:56.423Z,1.60
2023-02-12T21:17:43.354Z,1.20
2023-02-12T21:20:30.597Z,1.43
2023-02-12T21:23:17.476Z,1.40
2023-02-12T21:26:04.622Z,1.53
2023-02-12T21:28:52.620Z,1.00
2023-02-12T21:31:45.101Z,1.57
2023-02-12T21:34:37.707Z,2.20
2023-02-12T21:37:24.706Z,1.00
2023-02-12T21:40:11.892Z,1.80
2023-02-12T21:42:58.805Z,1.17
2023-02-12T21:45:26.135Z,1.37
2023-02-12T21:48:13.180Z,1.37
2023-02-12T21:51:00.241Z,1.50
2023-02-12T21:53:47.643Z,1.10
2023-02-12T21:56:35.347Z,2.10
2023-02-12T21:59:22.366Z,1.80
2023-02-12T22:02:13.125Z,1.20
2023-02-12T22:05:00.010Z,1.30
2023-02-12T22:07:46.899Z,1.33
2023-02-12T22:10:33.806Z,1.23
2023-02-12T22:13:21.021Z,1.30
2023-02-12T22:16:07.996Z,1.60
2023-02-12T22:18:55.315Z,1.20
2023-02-12T22:21:44.223Z,2.00
2023-02-12T22:24:36.289Z,1.60
2023-02-12T22:27:23.130Z,1.60
2023-02-12T22:30:10.245Z,1.50
2023-02-12T22:32:57.098Z,1.20
2023-02-12T22:35:44.032Z,1.60
2023-02-12T22:38:30.977Z,1.60
2023-02-12T22:41:18.694Z,1.13
2023-02-12T22:44:05.573Z,1.20
2023-02-12T22:46:53.499Z,1.67
2023-02-12T22:49:40.453Z,1.40
2023-02-12T22:52:27.497Z,1.30
2023-02-12T22:55:14.861Z,1.10
2023-02-12T22:58:01.825Z,1.30
2023-02-12T23:00:48.792Z,1.33
2023-02-12T23:03:35.664Z,1.03
2023-02-12T23:06:23.653Z,1.50
2023-02-12T23:09:13.346Z,1.43
2023-02-12T23:12:00.397Z,1.00
2023-02-12T23:14:47.359Z,1.20
2023-02-12T23:17:34.335Z,1.30
2023-02-12T23:20:21.358Z,1.40
2023-02-12T23:23:08.247Z,1.37
2023-02-12T23:25:55.288Z,1.33
2023-02-12T23:28:42.993Z,1.03
2023-02-12T23:31:30.162Z,1.30
2023-02-12T23:34:17.260Z,1.63
2023-02-12T23:37:04.186Z,1.23
2023-02-12T23:39:51.203Z,1.30
2023-02-12T23:42:38.045Z,1.10
2023-02-12T23:45:25.153Z,1.70
2023-02-12T23:48:12.058Z,1.60
2023-02-12T23:50:59.955Z,0.83
